Flight Number: EUR3070 Duration: 10:00
Departure: Lisboa / Portela (LPPT) at 07:30 Distance: 4163 Nm
Arrival: Rio de Janeiro (SBGL) at 17:30 Equipment: A340

Weather Information
Lisboa / Portela, Portugal (LPPT) 38-46N 009-08W 123M Nov 18, 2017 - 06:30 AM EST / 2017.11.18 1130 UTC
Wind: from the E (100 degrees) at 3 MPH (3 KT) (direction variable):0
Visibility: greater than 7 mile(s):0 Temperature: 62 F (17 C) Dew Point: 44 F (7 C) Relative Humidity: 51% Pressure (altimeter): 30.12 in. Hg (1020 hPa)
ob: LPPT 181130Z 10003KT 030V160 CAVOK 17/07 Q1020 cycle: 11
Sunrise: 07:26 Sunset: 17:17 (UTC)

Galeao, Brazil (SBGL) 22-49S 043-15W 42M Nov 18, 2017 - 07:00 AM EST / 2017.11.18 1200 UTC
Wind: from the ENE (060 degrees) at 6 MPH (5 KT):0
Visibility: greater than 7 mile(s):0
Sky conditions: mostly cloudy Temperature: 84 F (29 C) Dew Point: 69 F (21 C) Relative Humidity: 62% Pressure (altimeter): 29.77 in. Hg (1008 hPa)
ob: SBGL 181200Z 06005KT 9999 FEW020 BKN100 29/21 Q1008 cycle: 12
Sunrise: 08:02 Sunset: 21:13 (UTC)

TAF:2017/11/18 12:59 TAF SBGL 180740Z 1812/1918 36005KT 9999 FEW025 TX34/1817Z TN23/1908Z BECMG 1815/1817 13015KT PROB40 1819/1823 6000 TSRA SCT025 FEW035CB BECMG 1 823/1901 08005KT BECMG 1904/1906 30005KT SCT020 BECMG 1911/1913 24015KT BECMG 1913/1915 5000 RA BKN020 RMK PHQ

Previous Pireps for this route
Date Aircraft Flight time Fuel used Landing rate On time
2016-04-05A34008.45135994-163Yes
(pireps marked green are flown by you)

Route map